createdAt,value
2019-06-08T00:00:08.059Z,1.27
2019-06-08T00:02:36.606Z,1.10
2019-06-08T00:05:06.706Z,1.10
2019-06-08T00:07:35.241Z,1.20
2019-06-08T00:10:06.317Z,1.17
2019-06-08T00:12:34.763Z,1.30
2019-06-08T00:15:04.229Z,1.40
2019-06-08T00:17:38.494Z,1.23
2019-06-08T00:20:03.884Z,1.10
2019-06-08T00:22:32.648Z,1.53
2019-06-08T00:25:01.184Z,0.93
2019-06-08T00:27:29.657Z,1.20
2019-06-08T00:29:58.140Z,1.90
2019-06-08T00:32:26.612Z,1.77
2019-06-08T00:34:55.341Z,1.73
2019-06-08T00:37:24.918Z,1.17
2019-06-08T00:39:53.655Z,1.20
2019-06-08T00:42:23.320Z,1.10
2019-06-08T00:44:52.185Z,1.10
2019-06-08T00:47:20.948Z,1.40
2019-06-08T00:49:49.475Z,1.30
2019-06-08T00:52:18.909Z,1.80
2019-06-08T00:54:47.661Z,1.93
2019-06-08T00:57:16.123Z,1.97
2019-06-08T00:59:44.615Z,2.17
2019-06-08T01:02:13.140Z,1.50
2019-06-08T01:04:41.653Z,1.63
2019-06-08T01:07:10.144Z,1.53
2019-06-08T01:09:38.756Z,1.20
2019-06-08T01:12:07.231Z,1.00
2019-06-08T01:14:36.047Z,1.03
2019-06-08T01:17:04.969Z,1.00
2019-06-08T01:19:33.519Z,1.10
2019-06-08T01:22:02.139Z,1.10
2019-06-08T01:24:30.619Z,0.83
2019-06-08T01:26:59.114Z,1.13
2019-06-08T01:29:28.340Z,1.30
2019-06-08T01:31:57.074Z,1.30
2019-06-08T01:34:26.923Z,1.50
2019-06-08T01:36:55.725Z,2.00
2019-06-08T01:39:25.161Z,1.27
2019-06-08T01:41:53.803Z,1.33
2019-06-08T01:44:23.337Z,1.40
2019-06-08T01:46:52.016Z,1.50
2019-06-08T01:49:20.501Z,1.90
2019-06-08T01:51:48.967Z,1.83
2019-06-08T01:54:17.527Z,1.23
2019-06-08T01:56:46.001Z,1.30
2019-06-08T01:59:14.479Z,1.47
2019-06-08T02:01:43.030Z,1.30
2019-06-08T02:04:11.529Z,1.10
2019-06-08T02:06:40.329Z,1.17
2019-06-08T02:09:08.939Z,1.20
2019-06-08T02:11:37.555Z,1.10
2019-06-08T02:14:06.148Z,1.20
2019-06-08T02:16:35.446Z,1.10
2019-06-08T02:19:04.257Z,1.43
2019-06-08T02:21:32.879Z,1.60
2019-06-08T02:24:01.383Z,1.40
2019-06-08T02:26:30.992Z,1.20
2019-06-08T02:29:00.196Z,1.30
2019-06-08T02:31:30.508Z,1.10
2019-06-08T02:33:58.876Z,1.30
2019-06-08T02:36:28.768Z,1.30
2019-06-08T02:38:57.625Z,1.60
2019-06-08T02:41:26.069Z,2.07
2019-06-08T02:43:54.625Z,1.70
2019-06-08T02:46:23.230Z,1.53
2019-06-08T02:49:03.554Z,1.77
2019-06-08T02:51:22.345Z,1.30
2019-06-08T02:53:51.173Z,2.00
2019-06-08T02:56:21.425Z,1.70
2019-06-08T02:58:51.762Z,1.43
2019-06-08T03:01:22.621Z,1.50
2019-06-08T03:03:53.082Z,2.27
2019-06-08T03:06:22.077Z,3.40
2019-06-08T03:08:51.589Z,2.10
2019-06-08T03:11:21.095Z,1.43
2019-06-08T03:13:50.601Z,2.03
2019-06-08T03:16:19.370Z,2.07
2019-06-08T03:18:47.838Z,1.70
2019-06-08T03:21:16.330Z,1.90
2019-06-08T03:23:44.791Z,1.67
2019-06-08T03:26:13.308Z,2.03
2019-06-08T03:28:44.053Z,1.50
2019-06-08T03:31:12.418Z,1.80
2019-06-08T03:33:50.831Z,1.43
2019-06-08T03:36:11.373Z,1.77
2019-06-08T03:38:40.315Z,1.70
2019-06-08T03:41:09.567Z,2.17
2019-06-08T03:43:40.121Z,2.17
2019-06-08T03:46:08.403Z,3.17
2019-06-08T03:48:37.263Z,3.10
2019-06-08T03:51:07.455Z,3.30
2019-06-08T03:53:37.731Z,2.00
2019-06-08T03:56:06.528Z,1.50
2019-06-08T03:58:36.587Z,1.20
2019-06-08T04:01:05.284Z,1.00
2019-06-08T04:03:33.819Z,1.00
2019-06-08T04:06:02.602Z,1.00
2019-06-08T04:08:31.131Z,1.10
2019-06-08T04:10:59.607Z,0.90
2019-06-08T04:13:28.156Z,1.10
2019-06-08T04:15:56.662Z,1.20
2019-06-08T04:18:25.120Z,1.20
2019-06-08T04:20:53.935Z,1.10
2019-06-08T04:23:22.623Z,0.90
2019-06-08T04:25:51.171Z,1.00
2019-06-08T04:28:19.973Z,1.00
2019-06-08T04:30:49.860Z,1.00
2019-06-08T04:33:18.672Z,1.07
2019-06-08T04:35:47.427Z,1.10
2019-06-08T04:38:16.005Z,1.03
2019-06-08T04:40:45.953Z,1.00
2019-06-08T04:43:14.752Z,1.03
2019-06-08T04:45:45.174Z,1.07
2019-06-08T04:48:13.419Z,1.00
2019-06-08T04:50:43.091Z,1.00
2019-06-08T04:53:12.427Z,1.10
2019-06-08T04:55:41.077Z,1.10
2019-06-08T04:58:09.932Z,0.90
2019-06-08T05:00:39.055Z,1.00
2019-06-08T05:03:08.185Z,1.00
2019-06-08T05:05:36.756Z,1.10
2019-06-08T05:08:05.286Z,1.20
2019-06-08T05:10:33.768Z,0.90
2019-06-08T05:13:02.251Z,1.10
2019-06-08T05:15:30.775Z,0.90
2019-06-08T05:17:59.253Z,0.80
2019-06-08T05:20:38.197Z,1.10
2019-06-08T05:22:59.742Z,1.03
2019-06-08T05:25:28.211Z,0.90
2019-06-08T05:27:56.916Z,1.27
2019-06-08T05:30:28.122Z,1.40
2019-06-08T05:32:56.025Z,1.57
2019-06-08T05:35:24.704Z,1.10
2019-06-08T05:37:53.250Z,1.07
2019-06-08T05:40:22.059Z,1.07
2019-06-08T05:42:50.533Z,1.13
2019-06-08T05:45:19.498Z,1.40
2019-06-08T05:47:48.231Z,1.40
2019-06-08T05:50:17.113Z,1.07
2019-06-08T05:52:45.877Z,1.30
2019-06-08T05:55:14.705Z,1.23
2019-06-08T05:57:44.192Z,1.10
2019-06-08T06:00:13.221Z,1.10
2019-06-08T06:02:42.265Z,1.00
2019-06-08T06:05:11.267Z,1.70
2019-06-08T06:07:40.524Z,2.20
2019-06-08T06:10:10.263Z,2.80
2019-06-08T06:12:38.745Z,4.50
2019-06-08T06:15:07.995Z,3.00
2019-06-08T06:17:36.559Z,2.33
2019-06-08T06:20:09.491Z,2.00
2019-06-08T06:22:38.059Z,1.50
2019-06-08T06:25:07.495Z,1.60
2019-06-08T06:27:35.983Z,1.30
2019-06-08T06:30:08.957Z,1.33
2019-06-08T06:32:37.434Z,1.40
2019-06-08T06:35:06.455Z,1.33
2019-06-08T06:37:35.091Z,1.30
2019-06-08T06:40:04.910Z,1.40
2019-06-08T06:42:33.377Z,1.50
2019-06-08T06:45:01.861Z,1.80
2019-06-08T06:47:31.809Z,1.77
2019-06-08T06:50:00.334Z,1.53
2019-06-08T06:52:28.790Z,1.63
2019-06-08T06:54:57.343Z,1.80
2019-06-08T06:57:25.803Z,1.57
2019-06-08T06:59:54.547Z,1.80
2019-06-08T07:02:23.263Z,1.70
2019-06-08T07:04:52.228Z,1.60
2019-06-08T07:07:20.932Z,1.80
2019-06-08T07:09:50.516Z,1.80
2019-06-08T07:12:19.366Z,2.13
2019-06-08T07:14:49.029Z,2.27
2019-06-08T07:17:17.660Z,1.90
2019-06-08T07:19:46.396Z,1.87
2019-06-08T07:22:14.983Z,2.07
2019-06-08T07:24:43.447Z,2.00
2019-06-08T07:27:11.939Z,1.97
2019-06-08T07:29:40.403Z,1.70
2019-06-08T07:32:08.932Z,1.40
2019-06-08T07:34:37.409Z,1.43
2019-06-08T07:37:05.870Z,1.57
2019-06-08T07:39:34.364Z,1.57
2019-06-08T07:42:02.829Z,1.57
2019-06-08T07:44:31.316Z,1.40
2019-06-08T07:47:00.119Z,1.50
2019-06-08T07:49:28.774Z,1.43
2019-06-08T07:52:07.458Z,2.00
2019-06-08T07:54:27.529Z,1.90
2019-06-08T07:56:57.055Z,2.10
2019-06-08T07:59:25.639Z,2.07
2019-06-08T08:01:56.093Z,1.70
2019-06-08T08:04:24.619Z,2.20
2019-06-08T08:06:54.590Z,1.80
2019-06-08T08:09:23.223Z,1.80
2019-06-08T08:11:52.856Z,2.00
2019-06-08T08:14:21.455Z,2.30
2019-06-08T08:16:50.956Z,2.20
2019-06-08T08:19:19.592Z,2.10
2019-06-08T08:21:50.217Z,1.60
2019-06-08T08:24:18.284Z,1.87
2019-06-08T08:26:49.433Z,2.20
2019-06-08T08:29:17.688Z,2.33
2019-06-08T08:31:47.969Z,2.43
2019-06-08T08:34:18.262Z,2.00
2019-06-08T08:36:48.175Z,1.70
2019-06-08T08:39:17.831Z,1.93
2019-06-08T08:41:49.981Z,1.97
2019-06-08T08:44:17.587Z,1.80
2019-06-08T08:46:48.602Z,2.10
2019-06-08T08:49:18.204Z,2.10
2019-06-08T08:51:47.742Z,1.60
2019-06-08T08:54:18.309Z,1.87
2019-06-08T08:56:50.426Z,1.80
2019-06-08T08:59:17.730Z,1.77
2019-06-08T09:01:48.248Z,1.50
2019-06-08T09:04:18.547Z,1.53
2019-06-08T09:06:48.345Z,1.50
2019-06-08T09:09:21.331Z,1.80
2019-06-08T09:11:48.480Z,1.83
2019-06-08T09:14:18.460Z,1.60
2019-06-08T09:16:48.219Z,1.80
2019-06-08T09:19:20.605Z,2.10
2019-06-08T09:21:48.195Z,1.90
2019-06-08T09:24:18.618Z,2.07
2019-06-08T09:26:47.762Z,2.00
2019-06-08T09:29:18.726Z,1.60
2019-06-08T09:31:48.858Z,1.60
2019-06-08T09:34:19.251Z,1.60
2019-06-08T09:36:47.788Z,1.83
2019-06-08T09:39:18.613Z,1.63
2019-06-08T09:41:47.958Z,1.80
2019-06-08T09:44:18.498Z,1.60
2019-06-08T09:46:48.112Z,1.53
2019-06-08T09:49:18.746Z,1.63
2019-06-08T09:51:48.673Z,1.80
2019-06-08T09:54:18.253Z,1.80
2019-06-08T09:56:47.811Z,1.50
2019-06-08T09:59:18.680Z,1.30
2019-06-08T10:01:47.116Z,1.47
2019-06-08T10:04:17.320Z,1.20
2019-06-08T10:06:47.977Z,2.00
2019-06-08T10:09:18.436Z,1.83
2019-06-08T10:11:46.210Z,1.57
2019-06-08T10:14:14.709Z,1.30
2019-06-08T10:16:43.492Z,1.30
2019-06-08T10:19:12.036Z,1.00
2019-06-08T10:21:43.103Z,1.30
2019-06-08T10:24:11.028Z,1.40
2019-06-08T10:26:39.645Z,1.17
2019-06-08T10:29:10.312Z,1.20
2019-06-08T10:31:43.093Z,1.27
2019-06-08T10:34:10.998Z,1.10
2019-06-08T10:36:38.673Z,1.40
2019-06-08T10:39:11.432Z,1.50
2019-06-08T10:41:38.875Z,1.20
2019-06-08T10:44:13.188Z,1.20
2019-06-08T10:46:40.604Z,1.30
2019-06-08T10:49:13.980Z,1.20
2019-06-08T10:51:40.917Z,1.50
2019-06-08T10:54:11.410Z,1.60
2019-06-08T10:56:40.240Z,1.60
2019-06-08T10:59:11.647Z,1.60
2019-06-08T11:01:38.943Z,1.67
2019-06-08T11:04:09.045Z,1.77
2019-06-08T11:06:40.124Z,1.20
2019-06-08T11:09:12.664Z,1.50
2019-06-08T11:11:38.464Z,1.30
2019-06-08T11:14:09.733Z,1.70
2019-06-08T11:16:38.549Z,1.57
2019-06-08T11:19:11.437Z,1.37
2019-06-08T11:21:38.520Z,1.50
2019-06-08T11:24:23.280Z,1.47
2019-06-08T11:26:39.990Z,1.40
2019-06-08T11:29:11.881Z,1.50
2019-06-08T11:31:39.255Z,1.20
2019-06-08T11:34:09.006Z,1.37
2019-06-08T11:36:39.530Z,1.27
2019-06-08T11:39:10.893Z,1.30
2019-06-08T11:41:38.638Z,1.27
2019-06-08T11:44:11.703Z,1.50
2019-06-08T11:46:38.396Z,2.00
2019-06-08T11:49:12.578Z,1.50
2019-06-08T11:51:38.554Z,1.70
2019-06-08T11:54:25.473Z,1.40
2019-06-08T11:56:40.225Z,1.60
2019-06-08T11:59:10.638Z,1.40
2019-06-08T12:01:38.252Z,1.60
2019-06-08T12:04:07.839Z,1.70
2019-06-08T12:06:37.708Z,1.80
2019-06-08T12:09:09.507Z,1.70
2019-06-08T12:11:38.260Z,1.30
2019-06-08T12:14:09.176Z,1.40
2019-06-08T12:16:37.811Z,1.40
2019-06-08T12:19:09.973Z,1.30
2019-06-08T12:21:36.628Z,1.70
2019-06-08T12:24:06.177Z,1.50
2019-06-08T12:26:34.913Z,1.30
2019-06-08T12:29:04.921Z,1.30
2019-06-08T12:31:33.611Z,1.20
2019-06-08T12:34:02.102Z,1.50
2019-06-08T12:36:30.794Z,1.27
2019-06-08T12:38:59.419Z,1.60
2019-06-08T12:41:28.877Z,1.27
2019-06-08T12:43:58.348Z,1.10
2019-06-08T12:46:28.036Z,1.30
2019-06-08T12:48:58.311Z,1.57
2019-06-08T12:51:28.055Z,1.20
2019-06-08T12:53:59.892Z,1.27
2019-06-08T12:56:28.795Z,1.50
2019-06-08T12:58:58.008Z,1.10
2019-06-08T13:01:28.146Z,2.30
2019-06-08T13:03:58.090Z,1.83
2019-06-08T13:06:28.258Z,1.50
2019-06-08T13:08:57.803Z,1.37
2019-06-08T13:11:28.265Z,1.30
2019-06-08T13:13:56.725Z,1.30
2019-06-08T13:16:28.207Z,1.20
2019-06-08T13:18:55.716Z,1.23
2019-06-08T13:21:34.149Z,1.20
2019-06-08T13:23:54.364Z,1.20
2019-06-08T13:26:27.951Z,1.40
2019-06-08T13:28:53.286Z,1.00
2019-06-08T13:31:24.446Z,1.50
2019-06-08T13:33:51.959Z,1.47
2019-06-08T13:36:26.051Z,1.20
2019-06-08T13:38:50.701Z,1.40
2019-06-08T13:41:23.686Z,1.60
2019-06-08T13:43:49.355Z,1.90
2019-06-08T13:46:19.037Z,1.90
2019-06-08T13:48:58.591Z,1.10
2019-06-08T13:51:28.214Z,1.20
2019-06-08T13:53:58.167Z,1.20
2019-06-08T13:56:28.454Z,1.43
2019-06-08T13:58:56.980Z,1.50
2019-06-08T14:01:30.398Z,1.90
2019-06-08T14:03:58.163Z,1.83
2019-06-08T14:06:28.287Z,1.40
2019-06-08T14:08:58.022Z,1.30
2019-06-08T14:11:28.082Z,1.30
2019-06-08T14:13:58.375Z,1.40
2019-06-08T14:16:29.390Z,1.50
2019-06-08T14:18:57.279Z,1.07
2019-06-08T14:21:34.163Z,1.20
2019-06-08T14:23:55.914Z,1.00
2019-06-08T14:26:25.633Z,1.20
2019-06-08T14:28:54.436Z,0.90
2019-06-08T14:31:24.832Z,0.90
2019-06-08T14:33:53.117Z,1.07
2019-06-08T14:36:22.851Z,1.00
2019-06-08T14:38:51.787Z,1.00
2019-06-08T14:41:21.044Z,1.00
2019-06-08T14:43:50.872Z,0.90
2019-06-08T14:46:21.142Z,1.00
2019-06-08T14:48:49.715Z,0.90
2019-06-08T14:51:18.706Z,1.00
2019-06-08T14:53:48.557Z,1.10
2019-06-08T14:56:19.372Z,1.00
2019-06-08T14:58:48.287Z,0.80
2019-06-08T15:01:19.534Z,1.00
2019-06-08T15:03:48.148Z,0.80
2019-06-08T15:06:17.830Z,0.90
2019-06-08T15:08:50.105Z,0.80
2019-06-08T15:11:17.937Z,0.87
2019-06-08T15:13:48.764Z,1.00
2019-06-08T15:16:18.189Z,0.90
2019-06-08T15:18:46.798Z,0.73
2019-06-08T15:21:17.930Z,0.87
2019-06-08T15:23:47.218Z,0.97
2019-06-08T15:26:23.983Z,0.97
2019-06-08T15:28:48.411Z,0.90
2019-06-08T15:31:18.377Z,1.03
2019-06-08T15:33:48.229Z,1.20
2019-06-08T15:36:20.211Z,1.00
2019-06-08T15:38:48.008Z,1.13
2019-06-08T15:41:18.048Z,1.33
2019-06-08T15:43:48.087Z,1.23
2019-06-08T15:46:18.409Z,1.20
2019-06-08T15:48:48.548Z,1.27
2019-06-08T15:51:17.559Z,0.90
2019-06-08T15:53:47.720Z,1.00
2019-06-08T15:59:09.264Z,1.20
2019-06-08T16:01:37.962Z,1.13
2019-06-08T16:04:06.742Z,1.00
2019-06-08T16:06:35.285Z,1.00
2019-06-08T16:09:05.381Z,1.00
2019-06-08T16:11:34.631Z,1.00
2019-06-08T16:14:03.206Z,0.90
2019-06-08T16:16:31.709Z,1.03
2019-06-08T16:19:00.230Z,1.10
2019-06-08T16:21:29.610Z,0.87
2019-06-08T16:23:58.165Z,1.30
2019-06-08T16:26:27.760Z,0.97
2019-06-08T16:28:56.300Z,1.07
2019-06-08T16:31:24.803Z,1.30
2019-06-08T16:33:53.533Z,1.10
2019-06-08T16:36:22.343Z,1.00
2019-06-08T16:38:52.951Z,1.00
2019-06-08T16:41:41.124Z,0.93
2019-06-08T16:44:21.372Z,0.90
2019-06-08T16:46:50.455Z,0.93
2019-06-08T16:49:19.065Z,1.20
2019-06-08T16:51:55.874Z,1.20
2019-06-08T16:54:22.624Z,1.57
2019-06-08T16:56:51.161Z,1.43
2019-06-08T16:59:19.625Z,1.43
2019-06-08T17:01:48.082Z,1.20
2019-06-08T17:04:16.853Z,1.30
2019-06-08T17:06:45.347Z,1.07
2019-06-08T17:09:14.034Z,1.00
2019-06-08T17:11:42.499Z,1.33
2019-06-08T17:14:10.976Z,1.30
2019-06-08T17:16:40.615Z,1.13
2019-06-08T17:19:09.174Z,1.10
2019-06-08T17:21:38.420Z,0.97
2019-06-08T17:24:07.277Z,1.00
2019-06-08T17:26:36.628Z,1.00
2019-06-08T17:29:05.259Z,1.03
2019-06-08T17:31:35.108Z,1.17
2019-06-08T17:34:03.746Z,0.80
2019-06-08T17:36:32.252Z,0.90
2019-06-08T17:39:00.775Z,0.90
2019-06-08T17:41:29.244Z,1.00
2019-06-08T17:43:57.791Z,1.00
2019-06-08T17:46:26.245Z,0.93
2019-06-08T17:48:54.728Z,0.80
2019-06-08T17:51:23.203Z,0.80
2019-06-08T17:53:51.679Z,0.90
2019-06-08T17:56:20.159Z,1.03
2019-06-08T17:58:48.619Z,0.90
2019-06-08T18:01:17.074Z,0.97
2019-06-08T18:03:45.553Z,0.73
2019-06-08T18:06:14.015Z,1.03
2019-06-08T18:08:43.713Z,1.17
2019-06-08T18:11:12.691Z,0.80
2019-06-08T18:13:43.032Z,0.77
2019-06-08T18:16:11.349Z,1.10
2019-06-08T18:18:41.853Z,0.90
2019-06-08T18:21:10.023Z,1.03
2019-06-08T18:23:40.374Z,0.90
2019-06-08T18:26:08.678Z,0.90
2019-06-08T18:28:39.562Z,1.00
2019-06-08T18:31:07.883Z,1.00
2019-06-08T18:33:39.904Z,0.80
2019-06-08T18:36:07.645Z,1.10
2019-06-08T18:38:39.783Z,0.80
2019-06-08T18:41:08.267Z,1.00
2019-06-08T18:43:39.594Z,1.40
2019-06-08T18:46:07.448Z,1.90
2019-06-08T18:48:38.526Z,1.60
2019-06-08T18:51:08.305Z,1.83
2019-06-08T18:53:54.171Z,1.40
2019-06-08T18:56:08.223Z,1.43
2019-06-08T18:58:37.743Z,1.30
2019-06-08T19:01:08.738Z,1.40
2019-06-08T19:03:40.305Z,1.70
2019-06-08T19:06:10.144Z,2.00
2019-06-08T19:08:41.715Z,1.80
2019-06-08T19:11:09.447Z,1.60
2019-06-08T19:13:39.247Z,1.80
2019-06-08T19:16:07.878Z,2.00
2019-06-08T19:18:37.597Z,1.53
2019-06-08T19:21:07.776Z,1.80
2019-06-08T19:23:39.051Z,2.00
2019-06-08T19:26:07.737Z,1.90
2019-06-08T19:28:40.608Z,1.63
2019-06-08T19:31:07.901Z,1.70
2019-06-08T19:33:37.260Z,1.70
2019-06-08T19:36:07.762Z,1.70
2019-06-08T19:38:38.981Z,2.03
2019-06-08T19:41:08.171Z,1.70
2019-06-08T19:43:39.958Z,1.60
2019-06-08T19:46:07.254Z,1.90
2019-06-08T19:48:38.587Z,2.00
2019-06-08T19:51:07.638Z,1.60
2019-06-08T19:53:42.155Z,1.60
2019-06-08T19:56:07.833Z,1.63
2019-06-08T19:58:51.579Z,1.83
2019-06-08T20:01:07.277Z,2.10
2019-06-08T20:03:37.872Z,1.73
2019-06-08T20:06:06.271Z,1.50
2019-06-08T20:08:34.756Z,1.70
2019-06-08T20:11:03.316Z,1.33
2019-06-08T20:13:31.777Z,1.67
2019-06-08T20:16:02.377Z,1.63
2019-06-08T20:18:30.447Z,1.70
2019-06-08T20:20:58.952Z,1.50
2019-06-08T20:23:27.729Z,1.80
2019-06-08T20:25:57.365Z,1.47
2019-06-08T20:28:28.245Z,1.40
2019-06-08T20:30:57.918Z,1.53
2019-06-08T20:33:27.236Z,1.73
2019-06-08T20:35:58.414Z,1.63
2019-06-08T20:38:37.790Z,1.60
2019-06-08T20:40:58.003Z,1.60
2019-06-08T20:43:26.646Z,1.67
2019-06-08T20:45:57.388Z,1.83
2019-06-08T20:48:27.520Z,1.60
2019-06-08T20:50:57.217Z,1.67
2019-06-08T20:53:28.138Z,1.50
2019-06-08T20:55:57.201Z,1.53
2019-06-08T20:58:28.144Z,1.70
2019-06-08T21:00:57.730Z,1.70
2019-06-08T21:03:28.020Z,1.90
2019-06-08T21:05:58.261Z,1.80
2019-06-08T21:08:28.197Z,1.63
2019-06-08T21:10:58.659Z,1.60
2019-06-08T21:13:27.450Z,1.77
2019-06-08T21:16:00.279Z,1.57
2019-06-08T21:18:27.633Z,1.73
2019-06-08T21:20:58.056Z,1.83
2019-06-08T21:23:28.083Z,1.67
2019-06-08T21:25:59.933Z,1.40
2019-06-08T21:28:28.010Z,1.73
2019-06-08T21:31:01.645Z,1.77
2019-06-08T21:33:29.818Z,1.90
2019-06-08T21:36:04.632Z,1.60
2019-06-08T21:38:28.914Z,1.70
2019-06-08T21:41:00.894Z,1.80
2019-06-08T21:43:28.066Z,1.67
2019-06-08T21:45:59.471Z,1.60
2019-06-08T21:48:27.526Z,1.70
2019-06-08T21:50:59.991Z,1.87
2019-06-08T21:53:27.571Z,1.87
2019-06-08T21:55:56.345Z,1.70
2019-06-08T21:58:24.993Z,1.53
2019-06-08T22:00:54.750Z,1.50
2019-06-08T22:03:23.424Z,1.80
2019-06-08T22:05:51.981Z,1.70
2019-06-08T22:08:20.456Z,1.80
2019-06-08T22:10:51.004Z,1.50
2019-06-08T22:13:19.173Z,1.70
2019-06-08T22:15:47.980Z,1.73
2019-06-08T22:18:18.449Z,1.50
2019-06-08T22:20:47.795Z,1.50
2019-06-08T22:23:18.042Z,1.80
2019-06-08T22:25:47.735Z,1.50
2019-06-08T22:28:17.713Z,1.70
2019-06-08T22:30:48.206Z,1.50
2019-06-08T22:33:17.687Z,1.90
2019-06-08T22:35:47.830Z,1.80
2019-06-08T22:38:17.727Z,1.60
2019-06-08T22:40:47.901Z,1.77
2019-06-08T22:43:18.997Z,1.50
2019-06-08T22:45:48.109Z,1.70
2019-06-08T22:48:18.858Z,1.70
2019-06-08T22:50:47.667Z,2.00
2019-06-08T22:53:16.310Z,1.63
2019-06-08T22:55:44.809Z,1.63
2019-06-08T22:58:13.280Z,1.50
2019-06-08T23:00:52.341Z,1.60
2019-06-08T23:03:11.958Z,1.70
2019-06-08T23:05:40.512Z,1.50
2019-06-08T23:08:09.518Z,1.80
2019-06-08T23:10:38.326Z,1.70
2019-06-08T23:13:08.499Z,1.63
2019-06-08T23:15:37.624Z,1.80
2019-06-08T23:18:09.139Z,2.10
2019-06-08T23:20:37.160Z,1.77
2019-06-08T23:23:08.629Z,1.93
2019-06-08T23:25:37.257Z,2.07
2019-06-08T23:28:09.494Z,1.97
2019-06-08T23:30:38.188Z,1.80
2019-06-08T23:33:11.031Z,1.80
2019-06-08T23:35:57.107Z,1.70
2019-06-08T23:38:08.124Z,2.00
2019-06-08T23:40:37.902Z,1.60
2019-06-08T23:43:08.097Z,1.50
2019-06-08T23:45:38.016Z,2.10
2019-06-08T23:48:06.760Z,1.90
2019-06-08T23:50:37.786Z,1.90
2019-06-08T23:53:09.117Z,1.67
2019-06-08T23:55:37.217Z,1.80
2019-06-08T23:58:08.101Z,1.90
